createdAt,value
2018-01-08T00:00:33.309Z,-0.47
2018-01-08T00:03:00.827Z,-0.46
2018-01-08T00:05:28.344Z,-0.49
2018-01-08T00:07:55.896Z,-0.50
2018-01-08T00:10:23.417Z,-0.50
2018-01-08T00:12:50.985Z,-0.52
2018-01-08T00:15:18.499Z,-0.52
2018-01-08T00:17:46.049Z,-0.58
2018-01-08T00:20:13.571Z,-0.56
2018-01-08T00:22:41.089Z,-0.55
2018-01-08T00:25:08.608Z,-0.58
2018-01-08T00:27:36.126Z,-0.54
2018-01-08T00:30:03.642Z,-0.55
2018-01-08T00:32:31.164Z,-0.56
2018-01-08T00:34:58.762Z,-0.63
2018-01-08T00:37:26.276Z,-0.61
2018-01-08T00:39:53.801Z,-0.59
2018-01-08T00:42:21.446Z,-0.59
2018-01-08T00:44:48.974Z,-0.64
2018-01-08T00:47:16.484Z,-0.60
2018-01-08T00:49:44.004Z,-0.63
2018-01-08T00:52:11.528Z,-0.62
2018-01-08T00:54:39.139Z,-0.61
2018-01-08T00:57:06.702Z,-0.60
2018-01-08T00:59:34.248Z,-0.59
2018-01-08T01:02:01.819Z,-0.61
2018-01-08T01:04:29.376Z,-0.60
2018-01-08T01:06:56.940Z,-0.60
2018-01-08T01:09:24.500Z,-0.63
2018-01-08T01:11:52.025Z,-0.63
2018-01-08T01:14:19.541Z,-0.63
2018-01-08T01:16:47.060Z,-0.63
2018-01-08T01:19:14.584Z,-0.65
2018-01-08T01:21:42.143Z,-0.64
2018-01-08T01:24:09.746Z,-0.65
2018-01-08T01:26:37.265Z,-0.62
2018-01-08T01:29:04.872Z,-0.65
2018-01-08T01:31:32.385Z,-0.68
2018-01-08T01:33:59.932Z,-0.70
2018-01-08T01:36:27.456Z,-0.71
2018-01-08T01:38:54.967Z,-0.74
2018-01-08T01:41:22.489Z,-0.71
2018-01-08T01:43:50.135Z,-0.75
2018-01-08T01:46:17.732Z,-0.74
2018-01-08T01:48:45.246Z,-0.73
2018-01-08T01:51:12.762Z,-0.77
2018-01-08T01:53:40.310Z,-0.76
2018-01-08T01:56:07.828Z,-0.77
2018-01-08T01:58:35.339Z,-0.77
2018-01-08T02:01:02.851Z,-0.77
2018-01-08T02:03:30.395Z,-0.79
2018-01-08T02:05:57.896Z,-0.84
2018-01-08T02:08:25.418Z,-0.83
2018-01-08T02:10:52.952Z,-0.85
2018-01-08T02:13:20.510Z,-0.87
2018-01-08T02:15:48.037Z,-0.84
2018-01-08T02:18:15.656Z,-0.86
2018-01-08T02:20:43.183Z,-0.88
2018-01-08T02:23:10.688Z,-0.90
2018-01-08T02:25:38.217Z,-0.90
2018-01-08T02:28:05.740Z,-0.89
2018-01-08T02:30:33.264Z,-0.91
2018-01-08T02:33:00.826Z,-0.92
2018-01-08T02:35:28.385Z,-0.91
2018-01-08T02:37:55.906Z,-0.91
2018-01-08T02:40:23.422Z,-0.97
2018-01-08T02:42:50.946Z,-0.96
2018-01-08T02:45:18.525Z,-0.97
2018-01-08T02:47:46.059Z,-1.03
2018-01-08T02:50:13.615Z,-1.02
2018-01-08T02:52:41.129Z,-1.03
2018-01-08T02:55:08.659Z,-1.05
2018-01-08T02:57:36.215Z,-1.07
2018-01-08T03:00:03.749Z,-1.08
2018-01-08T03:02:31.265Z,-1.06
2018-01-08T03:04:58.807Z,-1.09
2018-01-08T03:07:26.345Z,-1.11
2018-01-08T03:09:53.861Z,-1.08
2018-01-08T03:12:21.376Z,-1.13
2018-01-08T03:14:48.941Z,-1.13
2018-01-08T03:17:16.465Z,-1.16
2018-01-08T03:19:43.980Z,-1.20
2018-01-08T03:22:11.508Z,-1.19
2018-01-08T03:24:39.072Z,-1.24
2018-01-08T03:27:06.602Z,-1.24
2018-01-08T03:29:34.116Z,-1.25
2018-01-08T03:32:01.646Z,-1.27
2018-01-08T03:34:29.164Z,-1.28
2018-01-08T03:36:56.771Z,-1.29
2018-01-08T03:39:24.297Z,-1.28
2018-01-08T03:41:51.827Z,-1.30
2018-01-08T03:44:19.345Z,-1.33
2018-01-08T05:02:43.820Z,-1.67
2018-01-08T05:05:11.345Z,-1.61
2018-01-08T05:07:38.869Z,-1.65
2018-01-08T05:10:06.396Z,-1.62
2018-01-08T05:12:33.928Z,-1.63
2018-01-08T05:15:01.441Z,-1.60
2018-01-08T05:17:28.961Z,-1.60
2018-01-08T05:19:56.485Z,-1.58
2018-01-08T05:22:24.005Z,-1.58
2018-01-08T05:24:51.584Z,-1.58
2018-01-08T05:27:19.107Z,-1.60
2018-01-08T05:29:46.704Z,-1.58
2018-01-08T05:32:14.216Z,-1.57
2018-01-08T05:34:41.824Z,-1.58
2018-01-08T05:37:09.336Z,-1.59
2018-01-08T05:39:36.944Z,-1.59
2018-01-08T05:42:04.469Z,-1.56
2018-01-08T05:44:32.021Z,-1.59
2018-01-08T05:46:59.561Z,-1.60
2018-01-08T05:49:27.185Z,-1.58
2018-01-08T05:51:54.704Z,-1.63
2018-01-08T05:54:22.305Z,-1.66
2018-01-08T05:56:49.825Z,-1.66
2018-01-08T05:59:17.335Z,-1.64
2018-01-08T06:01:44.882Z,-1.67
2018-01-08T06:04:12.460Z,-1.70
2018-01-08T06:06:40.010Z,-1.67
2018-01-08T06:09:07.540Z,-1.70
2018-01-08T06:11:35.062Z,-1.71
2018-01-08T06:14:02.590Z,-1.69
2018-01-08T06:16:30.136Z,-1.72
2018-01-08T06:18:57.690Z,-1.70
2018-01-08T06:21:25.218Z,-1.71
2018-01-08T06:23:52.735Z,-1.69
2018-01-08T06:26:20.308Z,-1.70
2018-01-08T06:28:47.956Z,-1.75
2018-01-08T06:31:15.486Z,-1.76
2018-01-08T06:33:43.060Z,-1.74
2018-01-08T06:36:10.601Z,-1.76
2018-01-08T06:38:38.138Z,-1.75
2018-01-08T06:41:05.652Z,-1.74
2018-01-08T06:43:33.178Z,-1.77
2018-01-08T06:46:00.738Z,-1.78
2018-01-08T06:48:28.279Z,-1.80
2018-01-08T06:50:55.800Z,-1.80
2018-01-08T06:53:23.317Z,-1.82
2018-01-08T06:55:50.836Z,-1.80
2018-01-08T06:58:18.366Z,-1.82
2018-01-08T07:00:45.926Z,-1.86
2018-01-08T07:03:13.448Z,-1.84
2018-01-08T07:05:40.972Z,-1.85
2018-01-08T07:08:08.500Z,-1.88
2018-01-08T07:10:36.028Z,-1.88
2018-01-08T07:13:03.577Z,-1.94
2018-01-08T07:15:31.179Z,-1.95
2018-01-08T07:17:58.707Z,-1.92
2018-01-08T07:20:26.313Z,-1.87
2018-01-08T07:22:53.828Z,-1.71
2018-01-08T07:25:21.360Z,-1.80
2018-01-08T07:27:48.888Z,-1.88
2018-01-08T07:30:16.408Z,-1.93
2018-01-08T07:32:43.942Z,-1.98
2018-01-08T07:35:11.485Z,-2.05
2018-01-08T07:37:39.122Z,-2.05
2018-01-08T07:40:06.654Z,-2.04
2018-01-08T07:42:34.291Z,-2.04
2018-01-08T07:45:01.904Z,-2.08
2018-01-08T07:47:29.438Z,-2.09
2018-01-08T07:49:57.332Z,-2.14
2018-01-08T07:52:25.481Z,-2.10
2018-01-08T07:54:53.030Z,-2.12
2018-01-08T07:57:21.453Z,-2.14
2018-01-08T07:59:49.000Z,-2.10
2018-01-08T08:02:16.528Z,-2.02
2018-01-08T08:04:44.092Z,-2.11
2018-01-08T08:07:11.617Z,-2.08
2018-01-08T08:09:39.133Z,-2.02
2018-01-08T08:12:06.687Z,-2.06
2018-01-08T08:14:34.208Z,-1.91
2018-01-08T08:17:01.720Z,-1.95
2018-01-08T08:19:29.276Z,-1.93
2018-01-08T08:21:56.810Z,-1.88
2018-01-08T08:24:24.331Z,-1.94
2018-01-08T08:26:51.964Z,-1.96
2018-01-08T08:29:19.485Z,-1.90
2018-01-08T08:31:47.186Z,-1.90
2018-01-08T08:34:14.709Z,-1.89
2018-01-08T08:36:42.250Z,-1.88
2018-01-08T08:39:09.798Z,-1.83
2018-01-08T08:41:37.368Z,-1.76
2018-01-08T08:44:04.921Z,-1.71
2018-01-08T08:46:32.429Z,-1.57
2018-01-08T08:48:59.939Z,-1.49
2018-01-08T08:51:27.549Z,-1.31
2018-01-08T08:53:55.072Z,-1.19
2018-01-08T08:56:22.668Z,-1.05
2018-01-08T08:58:50.194Z,-0.73
2018-01-08T09:01:17.727Z,-0.76
2018-01-08T09:03:45.245Z,-0.57
2018-01-08T09:06:12.774Z,-0.19
2018-01-08T09:08:40.379Z,-0.18
2018-01-08T09:11:07.892Z,-0.05
2018-01-08T09:13:35.411Z,0.39
2018-01-08T09:16:02.940Z,0.29
2018-01-08T09:18:30.469Z,0.19
2018-01-08T09:20:58.030Z,0.39
2018-01-08T09:23:25.638Z,0.58
2018-01-08T09:25:53.152Z,0.75
2018-01-08T09:28:20.666Z,0.83
2018-01-08T09:30:48.164Z,0.78
2018-01-08T09:33:15.672Z,1.03
2018-01-08T09:35:43.186Z,1.33
2018-01-08T09:38:10.717Z,1.40
2018-01-08T09:40:38.293Z,1.40
2018-01-08T09:43:05.856Z,1.76
2018-01-08T09:45:33.369Z,1.93
2018-01-08T09:48:00.952Z,1.50
2018-01-08T09:50:28.581Z,1.70
2018-01-08T09:52:56.136Z,1.70
2018-01-08T09:55:23.638Z,2.14
2018-01-08T09:57:51.868Z,2.46
2018-01-08T10:00:19.381Z,2.49
2018-01-08T10:02:58.722Z,2.58
2018-01-08T10:05:38.158Z,2.65
2018-01-08T10:08:17.536Z,2.82
2018-01-08T10:10:56.985Z,2.69
2018-01-08T10:13:36.403Z,2.59
2018-01-08T10:16:15.737Z,2.56
2018-01-08T10:18:42.714Z,2.23
2018-01-08T10:21:10.225Z,1.77
2018-01-08T10:23:37.827Z,1.93
2018-01-08T10:26:05.338Z,2.30
2018-01-08T10:28:32.846Z,1.85
2018-01-08T10:31:00.353Z,1.85
2018-01-08T10:33:27.867Z,1.76
2018-01-08T10:35:55.424Z,1.80
2018-01-08T10:38:22.925Z,1.89
2018-01-08T10:40:50.436Z,2.21
2018-01-08T10:43:23.556Z,1.92
2018-01-08T10:45:56.718Z,2.23
2018-01-08T10:48:29.827Z,1.84
2018-01-08T10:51:02.945Z,1.96
2018-01-08T10:53:30.466Z,1.69
2018-01-08T10:55:57.965Z,1.75
2018-01-08T10:58:25.580Z,1.96
2018-01-08T11:00:58.638Z,1.91
2018-01-08T11:06:30.033Z,2.19
2018-01-08T11:08:57.542Z,1.83
2018-01-08T11:11:25.062Z,1.94
2018-01-08T11:13:52.564Z,1.85
2018-01-08T11:16:20.176Z,1.90
2018-01-08T11:18:47.690Z,1.91
2018-01-08T11:21:15.234Z,2.32
2018-01-08T11:23:42.732Z,2.08
2018-01-08T11:26:10.232Z,1.98
2018-01-08T11:28:37.750Z,1.87
2018-01-08T11:31:05.270Z,1.94
2018-01-08T11:33:32.786Z,1.85
2018-01-08T11:36:00.292Z,2.00
2018-01-08T11:38:27.802Z,2.02
2018-01-08T11:40:55.316Z,2.09
2018-01-08T11:43:22.928Z,2.07
2018-01-08T11:45:50.437Z,2.06
2018-01-08T11:48:17.954Z,2.18
2018-01-08T11:50:45.467Z,2.22
2018-01-08T11:53:13.068Z,2.06
2018-01-08T11:55:40.633Z,2.07
2018-01-08T11:58:08.144Z,1.92
2018-01-08T12:00:35.664Z,1.88
2018-01-08T12:03:03.178Z,2.17
2018-01-08T12:05:30.704Z,2.02
2018-01-08T12:07:58.330Z,1.95
2018-01-08T12:10:25.845Z,1.95
2018-01-08T12:12:53.376Z,2.02
2018-01-08T12:15:21.007Z,2.01
2018-01-08T12:17:48.510Z,2.13
2018-01-08T12:20:16.017Z,2.01
2018-01-08T12:22:43.589Z,2.10
2018-01-08T12:25:11.148Z,2.15
2018-01-08T12:27:39.234Z,2.19
2018-01-08T12:30:06.766Z,2.21
2018-01-08T12:32:34.281Z,2.16
2018-01-08T12:35:01.899Z,2.12
2018-01-08T12:37:29.398Z,2.17
2018-01-08T12:39:57.004Z,2.16
2018-01-08T12:42:24.580Z,2.13
2018-01-08T12:44:52.136Z,2.12
2018-01-08T12:47:19.709Z,2.11
2018-01-08T12:49:47.254Z,2.19
2018-01-08T12:52:14.760Z,2.26
2018-01-08T12:54:42.261Z,2.18
2018-01-08T12:57:09.838Z,2.19
2018-01-08T12:59:37.344Z,2.18
2018-01-08T13:02:04.861Z,2.07
2018-01-08T13:04:32.368Z,2.08
2018-01-08T13:06:59.878Z,2.03
2018-01-08T13:09:27.428Z,2.12
2018-01-08T13:11:54.956Z,2.15
2018-01-08T13:14:22.557Z,2.19
2018-01-08T13:16:50.078Z,2.18
2018-01-08T13:19:17.593Z,2.19
2018-01-08T13:21:45.105Z,2.17
2018-01-08T13:24:12.696Z,2.10
2018-01-08T13:26:40.208Z,2.10
2018-01-08T13:29:07.745Z,2.05
2018-01-08T13:31:35.256Z,2.05
2018-01-08T13:34:02.760Z,2.03
2018-01-08T13:36:30.265Z,1.97
2018-01-08T13:38:57.790Z,1.89
2018-01-08T13:41:25.398Z,1.91
2018-01-08T13:43:52.954Z,1.85
2018-01-08T13:46:20.529Z,1.85
2018-01-08T13:48:48.041Z,1.85
2018-01-08T13:51:15.568Z,1.81
2018-01-08T13:53:43.078Z,1.81
2018-01-08T13:56:10.666Z,1.84
2018-01-08T13:58:38.224Z,1.81
2018-01-08T14:01:05.737Z,1.71
2018-01-08T14:03:33.265Z,1.66
2018-01-08T14:06:00.903Z,1.62
2018-01-08T14:08:28.409Z,1.56
2018-01-08T14:10:56.026Z,1.52
2018-01-08T14:13:23.585Z,1.49
2018-01-08T14:15:51.116Z,1.48
2018-01-08T14:18:18.629Z,1.44
2018-01-08T14:20:46.134Z,1.43
2018-01-08T14:23:13.650Z,1.42
2018-01-08T14:25:41.166Z,1.39
2018-01-08T14:28:08.681Z,1.32
2018-01-08T14:30:36.284Z,1.32
2018-01-08T14:33:03.791Z,1.32
2018-01-08T14:35:31.404Z,1.30
2018-01-08T14:37:58.977Z,1.27
2018-01-08T14:40:26.535Z,1.26
2018-01-08T14:42:54.050Z,1.27
2018-01-08T14:45:21.569Z,1.22
2018-01-08T14:47:49.073Z,1.25
2018-01-08T14:50:16.590Z,1.24
2018-01-08T14:52:44.102Z,1.17
2018-01-08T14:55:11.612Z,1.20
2018-01-08T14:57:39.265Z,1.14
2018-01-08T15:00:06.811Z,1.14
2018-01-08T15:02:34.342Z,1.15
2018-01-08T15:05:01.866Z,1.15
2018-01-08T15:07:29.388Z,1.07
2018-01-08T15:09:56.904Z,1.02
2018-01-08T15:12:24.434Z,0.97
2018-01-08T15:14:51.942Z,0.91
2018-01-08T15:17:19.540Z,0.88
2018-01-08T15:19:47.062Z,0.86
2018-01-08T15:22:14.568Z,0.85
2018-01-08T15:24:42.120Z,0.83
2018-01-08T15:27:09.644Z,0.79
2018-01-08T15:29:37.166Z,0.76
2018-01-08T15:32:04.784Z,0.73
2018-01-08T15:34:32.301Z,0.67
2018-01-08T15:36:59.808Z,0.64
2018-01-08T15:39:27.316Z,0.59
2018-01-08T15:41:54.904Z,0.58
2018-01-08T15:44:22.410Z,0.55
2018-01-08T15:46:49.940Z,0.55
2018-01-08T15:49:17.462Z,0.51
2018-01-08T15:51:44.982Z,0.50
2018-01-08T15:54:12.497Z,0.48
2018-01-08T15:56:40.076Z,0.48
2018-01-08T15:59:07.822Z,0.47
2018-01-08T16:01:35.416Z,0.43
2018-01-08T16:04:02.936Z,0.45
2018-01-08T16:06:30.542Z,0.43
2018-01-08T16:08:58.206Z,0.38
2018-01-08T16:11:25.734Z,0.34
2018-01-08T16:13:53.316Z,0.31
2018-01-08T16:16:20.858Z,0.30
2018-01-08T16:18:48.384Z,0.27
2018-01-08T16:21:15.913Z,0.24
2018-01-08T16:23:43.533Z,0.23
2018-01-08T16:26:11.043Z,0.27
2018-01-08T16:28:38.561Z,0.27
2018-01-08T16:31:06.110Z,0.26
2018-01-08T16:33:33.623Z,0.26
2018-01-08T16:36:01.145Z,0.27
2018-01-08T16:38:28.657Z,0.26
2018-01-08T16:40:56.220Z,0.24
2018-01-08T16:43:23.729Z,0.21
2018-01-08T16:45:51.588Z,0.16
2018-01-08T16:48:19.236Z,0.15
2018-01-08T16:50:46.766Z,0.14
2018-01-08T16:53:14.378Z,0.11
2018-01-08T16:55:41.897Z,0.09
2018-01-08T16:58:09.430Z,0.08
2018-01-08T17:00:37.095Z,0.06
2018-01-08T17:03:04.615Z,0.01
2018-01-08T17:05:32.152Z,-0.02
2018-01-08T17:07:59.729Z,-0.07
2018-01-08T17:10:27.288Z,-0.06
2018-01-08T17:12:54.846Z,-0.05
2018-01-08T17:15:22.406Z,-0.11
2018-01-08T17:17:49.936Z,-0.14
2018-01-08T17:20:17.480Z,-0.13
2018-01-08T17:22:45.014Z,-0.14
2018-01-08T17:25:12.544Z,-0.11
2018-01-08T17:27:40.104Z,-0.12
2018-01-08T17:30:07.634Z,-0.10
2018-01-08T17:32:35.163Z,-0.10
2018-01-08T17:35:02.692Z,-0.13
2018-01-08T17:37:30.245Z,-0.09
2018-01-08T17:39:57.762Z,-0.11
2018-01-08T17:42:25.285Z,-0.11
2018-01-08T17:44:52.818Z,-0.13
2018-01-08T17:47:20.342Z,-0.14
2018-01-08T17:49:47.935Z,-0.15
2018-01-08T17:52:15.450Z,-0.17
2018-01-08T17:54:42.976Z,-0.14
2018-01-08T17:57:10.491Z,-0.18
2018-01-08T17:59:38.025Z,-0.19
2018-01-08T18:02:05.562Z,-0.14
2018-01-08T18:04:33.203Z,-0.13
2018-01-08T18:07:00.738Z,-0.14
2018-01-08T18:09:28.252Z,-0.14
2018-01-08T18:11:55.777Z,-0.12
2018-01-08T18:14:23.314Z,-0.10
2018-01-08T18:16:50.828Z,-0.13
2018-01-08T18:19:18.353Z,-0.11
2018-01-08T18:21:45.915Z,-0.10
2018-01-08T18:24:13.471Z,-0.11
2018-01-08T18:26:41.031Z,-0.14
2018-01-08T18:29:08.564Z,-0.13
2018-01-08T18:31:36.156Z,-0.17
2018-01-08T18:34:03.723Z,-0.17
2018-01-08T18:36:31.248Z,-0.19
2018-01-08T18:38:58.790Z,-0.22
2018-01-08T18:41:26.323Z,-0.24
2018-01-08T18:43:53.961Z,-0.26
2018-01-08T18:46:21.488Z,-0.28
2018-01-08T18:48:49.065Z,-0.32
2018-01-08T18:51:16.582Z,-0.34
2018-01-08T18:53:44.115Z,-0.38
2018-01-08T18:56:11.655Z,-0.40
2018-01-08T18:58:39.186Z,-0.38
2018-01-08T19:01:06.701Z,-0.42
2018-01-08T19:03:34.232Z,-0.43
2018-01-08T19:06:01.763Z,-0.46
2018-01-08T19:08:29.282Z,-0.49
2018-01-08T19:10:56.809Z,-0.47
2018-01-08T19:13:24.370Z,-0.54
2018-01-08T19:15:51.885Z,-0.54
2018-01-08T19:18:19.424Z,-0.56
2018-01-08T19:20:46.950Z,-0.59
2018-01-08T19:23:14.475Z,-0.63
2018-01-08T19:25:41.993Z,-0.65
2018-01-08T19:28:09.514Z,-0.65
2018-01-08T19:30:37.081Z,-0.65
2018-01-08T19:33:04.611Z,-0.71
2018-01-08T19:35:32.136Z,-0.67
2018-01-08T19:37:59.648Z,-0.70
2018-01-08T19:40:27.165Z,-0.73
2018-01-08T19:42:54.680Z,-0.71
2018-01-08T19:45:22.193Z,-0.74
2018-01-08T19:47:49.801Z,-0.75
2018-01-08T19:50:17.317Z,-0.75
2018-01-08T19:52:44.854Z,-0.78
2018-01-08T19:55:12.476Z,-0.76
2018-01-08T19:57:39.995Z,-0.76
2018-01-08T20:00:07.514Z,-0.80
2018-01-08T20:02:35.046Z,-0.77
2018-01-08T20:05:02.586Z,-0.76
2018-01-08T20:07:30.109Z,-0.76
2018-01-08T20:09:57.737Z,-0.81
2018-01-08T20:12:25.265Z,-0.81
2018-01-08T20:14:52.827Z,-0.80
2018-01-08T20:17:20.406Z,-0.79
2018-01-08T20:19:47.929Z,-0.81
2018-01-08T20:22:15.469Z,-0.83
2018-01-08T20:24:42.995Z,-0.83
2018-01-08T20:27:10.520Z,-0.85
2018-01-08T20:29:38.053Z,-0.87
2018-01-08T20:32:05.666Z,-0.91
2018-01-08T20:34:33.181Z,-0.90
2018-01-08T20:37:00.718Z,-0.92
2018-01-08T20:39:28.236Z,-0.93
2018-01-08T20:41:55.755Z,-0.94
2018-01-08T20:44:23.273Z,-0.96
2018-01-08T20:46:50.792Z,-0.95
2018-01-08T20:49:18.350Z,-0.95
2018-01-08T20:51:45.882Z,-0.94
2018-01-08T20:54:13.512Z,-0.95
2018-01-08T20:56:41.030Z,-0.92
2018-01-08T20:59:08.559Z,-0.96
2018-01-08T21:01:36.090Z,-0.92
2018-01-08T21:04:03.614Z,-0.91
2018-01-08T21:06:31.221Z,-0.95
2018-01-08T21:08:58.845Z,-0.96
2018-01-08T21:11:26.362Z,-0.94
2018-01-08T21:13:53.896Z,-0.94
2018-01-08T21:16:21.420Z,-0.95
2018-01-08T21:18:48.942Z,-0.95
2018-01-08T21:21:16.453Z,-0.96
2018-01-08T21:23:43.981Z,-0.98
2018-01-08T21:26:11.518Z,-1.00
2018-01-08T21:28:39.144Z,-1.00
2018-01-08T21:31:06.670Z,-1.02
2018-01-08T21:33:34.224Z,-1.06
2018-01-08T21:36:01.749Z,-1.03
2018-01-08T21:38:29.274Z,-1.05
2018-01-08T21:40:56.802Z,-1.05
2018-01-08T21:43:24.357Z,-1.08
2018-01-08T21:45:51.923Z,-1.06
2018-01-08T21:48:19.450Z,-1.07
2018-01-08T21:50:46.982Z,-1.06
2018-01-08T21:53:14.509Z,-1.05
2018-01-08T21:55:42.029Z,-1.05
2018-01-08T21:58:09.554Z,-1.04
2018-01-08T22:00:37.072Z,-1.11
2018-01-08T22:03:04.635Z,-1.09
2018-01-08T22:05:32.171Z,-1.11
2018-01-08T22:07:59.800Z,-1.11
2018-01-08T22:10:27.324Z,-1.12
2018-01-08T22:12:54.863Z,-1.12
2018-01-08T22:15:22.390Z,-1.16
2018-01-08T22:17:49.922Z,-1.16
2018-01-08T22:20:17.437Z,-1.15
2018-01-08T22:22:45.052Z,-1.18
2018-01-08T22:25:12.588Z,-1.17
2018-01-08T22:27:40.108Z,-1.20
2018-01-08T22:30:07.642Z,-1.21
2018-01-08T22:32:35.194Z,-1.23
2018-01-08T22:35:02.708Z,-1.25
2018-01-08T22:37:30.281Z,-1.28
2018-01-08T22:39:57.822Z,-1.24
2018-01-08T22:42:25.371Z,-1.28
2018-01-08T22:44:52.881Z,-1.28
2018-01-08T22:47:20.458Z,-1.27
2018-01-08T22:49:47.987Z,-1.27
2018-01-08T22:52:15.511Z,-1.28
2018-01-08T22:54:43.037Z,-1.26
2018-01-08T22:57:10.591Z,-1.28
2018-01-08T22:59:38.126Z,-1.25
2018-01-08T23:02:05.713Z,-1.26
2018-01-08T23:04:33.232Z,-1.27
2018-01-08T23:07:00.774Z,-1.25
2018-01-08T23:09:28.325Z,-1.23
2018-01-08T23:11:55.955Z,-1.24
2018-01-08T23:14:23.499Z,-1.22
2018-01-08T23:16:51.021Z,-1.22
2018-01-08T23:19:18.545Z,-1.20
2018-01-08T23:21:46.190Z,-1.25
2018-01-08T23:24:13.712Z,-1.23
2018-01-08T23:26:41.232Z,-1.25
2018-01-08T23:29:08.763Z,-1.26
2018-01-08T23:31:36.306Z,-1.26
2018-01-08T23:34:03.821Z,-1.28
2018-01-08T23:36:31.342Z,-1.29
2018-01-08T23:38:58.870Z,-1.27
2018-01-08T23:41:26.465Z,-1.28
2018-01-08T23:43:53.990Z,-1.28
2018-01-08T23:46:21.517Z,-1.28
2018-01-08T23:48:49.039Z,-1.28
2018-01-08T23:51:16.569Z,-1.27
2018-01-08T23:53:44.129Z,-1.26
2018-01-08T23:56:11.663Z,-1.27
2018-01-08T23:58:39.194Z,-1.27
